Terminal Aerodrome Forecast
Issued by NWS

Home | Current Version | Previous Version | Text Only | Print | Product List | Glossary On
Versions: 1 2 3 4 5 6 7 8 9 10 11 12 13 14 15
000
FTUS45 KRIW 251720
TAFBPI
TAF
KBPI 251720Z 2518/2618 VRB05KT P6SM SCT050 SCT200
     FM251900 29013G21KT P6SM SCT050 SCT200
     FM260100 26008KT P6SM BKN050
     FM260800 17007KT P6SM VCSH SCT025 OVC040
     FM261100 VRB05KT 5SM -SN SCT020 BKN030
     FM261700 25007KT P6SM VCSH SCT020 BKN035=

USA.gov is the U.S. government's official web portal to all federal, state and local government web resources and services.